Ana Sayfa
METAR-TAF:

METAR-TAF

Havaalanları :

Springdale, Arkansas, Amerika Birleşik Devletleri

Enlem: 36-11N, Boylam: 094-07W, yükseklik: 412 m

Güncel hava durumu gözlemi

Rapor saat 11:48 UTC de 29 dakika önce yapıldı.
Rüzgar güney/güneydoğudan 12 kt ve 19 kt'a kadar ani rüzgarlar
Sıcaklık 24°C
Nem 100%
Basınç 1015 hPa
Görüş mesafesi: 16.1 km
2300 ft yükseklikte parçalı bulutlu

METAR: KASG 181148Z 16012G19KT 10SM SCT023 24/24 A2996

Saat: 07:17 (12:17 UTC)


TAF: eksik

4.000'den fazla havaalanı için hava durumu gözlemleri ve tahminleri (METAR ve TAF raporları).

Kullanılabilir istasyonlar harita üzerinde sarı ve kırmızı noktalarla gösterilir.

İstasyonun adını görmek için fareyi noktanın üzerinde gezdirin.

Sonrasında hava gözlem ve tahminlerini görmek için tıklayın.

Haritayı değiştirmek için: yaklaştırmak için siyah artı işaretli yeşil düğmeye ve uzaklaştırmak için de eksi işaretli düğmeye hızla tıklayın; bitişik haritalar için yeşil okları kullanın.


METAR-TAF: